Time;durP1;ratioP1;P1;durP2;ratioP2;P2;SDS_P1;SDS_P2;PMS_P1;PMS_P2;Temp;Humidity;BMP_temperature;BMP_pressure;BME280_temperature;BME280_humidity;BME280_pressure;Samples;Min_cycle;Max_cycle;Signal;HPM_P1;HPM_P2
2022/09/08 00:00:30;;;;;;;9.20;2.50;;;22.50;70.40;;;;;;5093967;28;20028;-71
2022/09/08 00:02:56;;;;;;;4.35;2.20;;;22.40;70.30;;;;;;5093979;28;20085;-72
2022/09/08 00:05:23;;;;;;;5.57;2.38;;;22.50;70.30;;;;;;5092791;28;20024;-71
2022/09/08 00:07:51;;;;;;;5.78;2.70;;;22.40;70.30;;;;;;5072466;28;20023;-72
2022/09/08 00:10:17;;;;;;;3.42;2.00;;;22.50;70.40;;;;;;5073519;28;20123;-71
2022/09/08 00:12:43;;;;;;;4.22;2.35;;;22.50;70.30;;;;;;5073621;28;20048;-71
2022/09/08 00:15:10;;;;;;;6.00;2.45;;;22.40;70.30;;;;;;5072539;28;20054;-71
2022/09/08 00:17:35;;;;;;;6.43;2.00;;;22.50;70.40;;;;;;5112112;28;20080;-72
2022/09/08 00:20:01;;;;;;;5.60;2.20;;;22.40;70.30;;;;;;5112937;28;20031;-72
2022/09/08 00:22:27;;;;;;;6.55;2.60;;;22.40;70.30;;;;;;5114112;28;20023;-72
2022/09/08 00:24:53;;;;;;;4.28;2.30;;;22.40;70.30;;;;;;5113810;28;20051;-73
2022/09/08 00:27:18;;;;;;;3.30;2.20;;;22.50;70.40;;;;;;5114096;28;20050;-72
2022/09/08 00:29:44;;;;;;;3.25;2.20;;;22.50;70.40;;;;;;5098158;28;20540;-72
2022/09/08 00:32:10;;;;;;;4.85;2.20;;;22.40;70.30;;;;;;5093412;28;20016;-72
2022/09/08 00:34:36;;;;;;;3.78;1.90;;;22.50;70.40;;;;;;5092398;28;20031;-72
2022/09/08 00:37:02;;;;;;;4.53;2.00;;;22.50;70.40;;;;;;5093567;28;20020;-72
2022/09/08 00:39:27;;;;;;;5.70;2.35;;;22.50;70.40;;;;;;5093097;28;20028;-72
2022/09/08 00:41:55;;;;;;;4.30;2.38;;;22.50;70.40;;;;;;5093411;28;20070;-72
2022/09/08 00:44:48;;;;;;;4.93;2.20;;;22.40;70.40;;;;;;5093143;28;20488;-72
2022/09/08 00:47:23;;;;;;;5.45;2.17;;;22.40;70.30;;;;;;5093078;28;20059;-72
2022/09/08 00:50:15;;;;;;;9.07;2.03;;;22.50;70.40;;;;;;5092028;28;20505;-72
2022/09/08 00:53:00;;;;;;;6.10;2.58;;;22.40;70.30;;;;;;5091396;28;20032;-72
2022/09/08 00:55:29;;;;;;;6.30;2.40;;;22.50;71.40;;;;;;5091813;28;20028;-72
2022/09/08 00:57:55;;;;;;;4.93;2.38;;;22.50;70.50;;;;;;5075564;28;20020;-73
2022/09/08 01:00:20;;;;;;;4.10;2.00;;;22.40;70.40;;;;;;5091878;28;20028;-72
2022/09/08 01:02:46;;;;;;;4.40;2.00;;;22.50;70.40;;;;;;5092860;28;20020;-72
2022/09/08 01:05:21;;;;;;;4.15;2.10;;;22.40;70.40;;;;;;5091784;28;20024;-72
2022/09/08 01:13:59;;;;;;;6.63;2.35;;;22.50;70.40;;;;;;5071905;28;20107;-72
2022/09/08 01:16:25;;;;;;;8.32;2.30;;;22.50;70.50;;;;;;5091551;28;20069;-72
2022/09/08 01:18:51;;;;;;;3.97;2.08;;;22.40;70.40;;;;;;5111716;28;20031;-72
2022/09/08 01:21:42;;;;;;;3.92;1.98;;;22.50;70.40;;;;;;5077903;28;20066;-72
2022/09/08 01:24:28;;;;;;;5.00;2.13;;;22.50;70.40;;;;;;5112604;28;20114;-72
2022/09/08 01:26:59;;;;;;;4.05;1.65;;;22.40;70.40;;;;;;5111913;28;20069;-73
2022/09/08 01:29:25;;;;;;;4.40;2.15;;;22.40;70.50;;;;;;5112950;28;20027;-72
2022/09/08 01:31:51;;;;;;;4.75;2.08;;;22.40;70.40;;;;;;5112841;28;20020;-72
2022/09/08 01:34:16;;;;;;;4.75;2.00;;;22.50;70.50;;;;;;5095033;28;20031;-72
2022/09/08 01:36:42;;;;;;;3.95;2.33;;;22.40;70.40;;;;;;5111826;28;20780;-72
2022/09/08 01:39:07;;;;;;;5.00;2.13;;;22.50;70.40;;;;;;5112603;28;20115;-72
2022/09/08 01:41:33;;;;;;;4.25;1.90;;;22.50;70.40;;;;;;5112779;28;20059;-72
2022/09/08 01:43:59;;;;;;;8.10;2.10;;;22.40;70.40;;;;;;5112708;28;20038;-72
2022/09/08 01:46:25;;;;;;;5.07;2.17;;;22.50;70.40;;;;;;5077181;28;20025;-72
2022/09/08 01:48:50;;;;;;;6.40;1.90;;;22.40;70.40;;;;;;5071518;28;20048;-72
2022/09/08 01:51:16;;;;;;;5.47;2.05;;;22.50;70.40;;;;;;5069953;28;20506;-72
2022/09/08 01:53:41;;;;;;;5.68;2.30;;;22.50;70.40;;;;;;5069408;28;20468;-72
2022/09/08 01:56:07;;;;;;;4.43;2.25;;;22.50;70.40;;;;;;5068945;28;20035;-72
2022/09/08 01:58:33;;;;;;;7.22;1.88;;;22.50;70.50;;;;;;5069063;28;20029;-72
2022/09/08 02:00:59;;;;;;;7.68;2.13;;;22.40;70.40;;;;;;5070481;28;20100;-72
2022/09/08 02:03:24;;;;;;;5.53;1.60;;;22.50;70.50;;;;;;5070319;28;20032;-72
2022/09/08 02:05:50;;;;;;;5.38;2.20;;;22.50;70.50;;;;;;5070125;28;20403;-72
2022/09/08 02:08:15;;;;;;;9.63;2.10;;;22.50;70.50;;;;;;5071627;28;20029;-72
2022/09/08 02:10:41;;;;;;;4.10;1.92;;;22.40;70.50;;;;;;5072054;28;20039;-72
2022/09/08 02:13:07;;;;;;;6.97;2.28;;;22.50;70.60;;;;;;5071965;28;20021;-72
2022/09/08 02:15:33;;;;;;;9.25;2.13;;;22.40;70.50;;;;;;5076168;28;20031;-72
2022/09/08 02:17:58;;;;;;;10.13;1.85;;;22.50;70.50;;;;;;5112268;28;20076;-72
2022/09/08 02:20:24;;;;;;;7.30;1.80;;;22.40;70.50;;;;;;5094041;28;20077;-72
2022/09/08 02:22:53;;;;;;;7.10;1.85;;;22.50;70.50;;;;;;5111056;28;20085;-72
2022/09/08 02:25:20;;;;;;;4.82;2.13;;;22.40;70.50;;;;;;5111332;28;20399;-72
2022/09/08 02:27:46;;;;;;;5.05;2.10;;;22.40;70.40;;;;;;5112410;28;20008;-72
2022/09/08 02:30:12;;;;;;;4.95;2.00;;;22.50;70.50;;;;;;5112302;28;20032;-72
2022/09/08 02:32:38;;;;;;;4.43;1.90;;;22.40;70.40;;;;;;5113791;28;20019;-72
2022/09/08 02:35:04;;;;;;;3.28;1.77;;;22.40;70.40;;;;;;5116021;28;20051;-73
2022/09/08 02:37:29;;;;;;;8.63;1.90;;;22.40;70.40;;;;;;5115214;28;20090;-72
2022/09/08 02:39:55;;;;;;;4.10;2.00;;;22.40;70.50;;;;;;5116077;28;20555;-72
2022/09/08 02:42:21;;;;;;;5.75;2.10;;;22.40;70.50;;;;;;5115944;28;20486;-72
2022/09/08 02:44:47;;;;;;;5.60;2.05;;;22.40;70.50;;;;;;5115992;28;20020;-72
2022/09/08 02:47:12;;;;;;;5.25;2.17;;;22.40;70.50;;;;;;5115937;28;20492;-71
2022/09/08 02:49:38;;;;;;;4.55;1.70;;;22.40;70.50;;;;;;5115670;28;20055;-73
2022/09/08 02:52:04;;;;;;;3.53;1.55;;;22.40;70.50;;;;;;5116067;28;20019;-71
2022/09/08 02:54:29;;;;;;;6.22;1.92;;;22.40;70.50;;;;;;5115897;28;20032;-72
2022/09/08 02:56:55;;;;;;;2.95;1.55;;;22.40;70.50;;;;;;5115683;28;20023;-72
2022/09/08 02:59:20;;;;;;;3.70;1.80;;;22.40;70.50;;;;;;5115942;28;20027;-72
2022/09/08 03:01:49;;;;;;;4.72;1.60;;;22.40;70.50;;;;;;5115477;28;20023;-72
2022/09/08 03:04:15;;;;;;;3.45;1.63;;;22.40;70.50;;;;;;5115367;28;20073;-72
2022/09/08 03:06:41;;;;;;;4.97;2.10;;;22.40;70.50;;;;;;5114213;28;20043;-73
2022/09/08 03:09:06;;;;;;;4.60;1.95;;;22.40;70.60;;;;;;5088853;28;20488;-72
2022/09/08 03:11:32;;;;;;;6.75;1.90;;;22.40;70.50;;;;;;5074701;28;20488;-72
2022/09/08 03:13:59;;;;;;;4.78;1.70;;;22.40;70.50;;;;;;5074727;28;20021;-72
2022/09/08 03:16:25;;;;;;;4.10;1.88;;;22.40;70.50;;;;;;5094766;28;20024;-72
2022/09/08 03:18:51;;;;;;;4.93;2.08;;;22.40;70.50;;;;;;5115004;28;20115;-72
2022/09/08 03:21:16;;;;;;;6.95;1.80;;;22.40;70.50;;;;;;5115357;28;20224;-72
2022/09/08 03:23:42;;;;;;;5.40;1.77;;;22.40;70.50;;;;;;5114992;28;20110;-72
2022/09/08 03:26:15;;;;;;;3.50;1.75;;;22.40;70.50;;;;;;5115247;28;20023;-72
2022/09/08 03:28:41;;;;;;;4.90;1.88;;;22.40;70.40;;;;;;5097978;28;20021;-72
2022/09/08 03:31:09;;;;;;;7.80;2.20;;;22.40;70.50;;;;;;5076718;28;20020;-72
2022/09/08 03:33:34;;;;;;;4.63;1.58;;;22.40;70.60;;;;;;5093913;28;20049;-72
2022/09/08 03:36:01;;;;;;;3.83;2.08;;;22.40;70.60;;;;;;5093334;28;20028;-73
2022/09/08 03:38:27;;;;;;;3.83;1.48;;;22.40;70.50;;;;;;5093065;28;20504;-72
2022/09/08 03:40:53;;;;;;;7.25;1.60;;;22.40;70.60;;;;;;5092798;28;20020;-72
2022/09/08 03:43:19;;;;;;;4.55;1.88;;;22.40;70.60;;;;;;5091685;28;20123;-72
2022/09/08 03:45:45;;;;;;;3.55;1.70;;;22.40;70.60;;;;;;5093255;28;20095;-72
2022/09/08 03:48:11;;;;;;;7.72;1.98;;;22.40;70.60;;;;;;5091774;28;20131;-72
2022/09/08 03:50:37;;;;;;;4.53;1.85;;;22.40;70.60;;;;;;5092710;28;20081;-72
2022/09/08 03:53:03;;;;;;;5.07;1.75;;;22.40;70.60;;;;;;5093155;28;20024;-72
2022/09/08 03:55:28;;;;;;;4.90;1.60;;;22.40;70.60;;;;;;5093680;28;20020;-72
2022/09/08 03:57:54;;;;;;;2.42;1.50;;;22.40;70.60;;;;;;5094061;28;20106;-72
2022/09/08 04:00:20;;;;;;;5.45;2.17;;;22.40;70.60;;;;;;5094101;28;20030;-72
2022/09/08 04:02:45;;;;;;;3.20;1.50;;;22.40;70.50;;;;;;5093888;28;20047;-72
2022/09/08 04:05:11;;;;;;;3.22;1.70;;;22.40;70.50;;;;;;5094141;28;20031;-72
2022/09/08 04:07:38;;;;;;;3.70;1.85;;;22.40;70.50;;;;;;5093006;28;20036;-72
2022/09/08 04:10:04;;;;;;;4.63;1.85;;;22.40;70.60;;;;;;5073734;28;20070;-72
2022/09/08 04:12:30;;;;;;;4.03;1.95;;;22.40;70.50;;;;;;5073666;28;20021;-72
2022/09/08 04:14:56;;;;;;;3.55;1.50;;;22.40;70.50;;;;;;5072368;28;20035;-72
2022/09/08 04:17:21;;;;;;;3.80;1.60;;;22.40;70.50;;;;;;5108129;28;20026;-72
2022/09/08 04:19:49;;;;;;;5.72;1.80;;;22.40;70.50;;;;;;5113911;28;20055;-72
2022/09/08 04:22:15;;;;;;;3.53;2.08;;;22.40;70.50;;;;;;5096191;28;20020;-72
2022/09/08 04:24:41;;;;;;;5.60;1.70;;;22.40;71.60;;;;;;5114078;28;20372;-72
2022/09/08 04:27:06;;;;;;;2.80;1.33;;;22.40;70.50;;;;;;5114007;27;20145;-73
2022/09/08 04:29:33;;;;;;;3.13;1.58;;;22.40;70.50;;;;;;5113164;28;20097;-71
2022/09/08 04:31:59;;;;;;;4.43;1.77;;;22.40;70.60;;;;;;5112208;28;20039;-72
2022/09/08 04:34:24;;;;;;;3.35;1.63;;;22.40;70.50;;;;;;5113914;28;20031;-72
2022/09/08 04:36:50;;;;;;;4.72;2.05;;;22.40;70.50;;;;;;5113756;28;20024;-72
2022/09/08 04:39:17;;;;;;;5.60;2.17;;;22.40;70.50;;;;;;5113899;28;20035;-72
2022/09/08 04:41:43;;;;;;;2.65;1.52;;;22.40;70.50;;;;;;5113677;28;20020;-72
2022/09/08 04:44:09;;;;;;;4.28;1.77;;;22.40;70.50;;;;;;5112456;28;20046;-72
2022/09/08 04:46:36;;;;;;;4.22;1.80;;;22.30;70.50;;;;;;5113529;28;20428;-72
2022/09/08 04:49:02;;;;;;;5.07;1.90;;;22.30;70.50;;;;;;5112072;28;20461;-72
2022/09/08 04:51:28;;;;;;;3.28;1.52;;;22.40;70.50;;;;;;5112309;28;20073;-72
2022/09/08 04:53:55;;;;;;;2.42;1.40;;;22.40;70.50;;;;;;5112804;28;20027;-72
2022/09/08 04:56:21;;;;;;;4.20;1.80;;;22.40;70.50;;;;;;5095458;28;20073;-72
2022/09/08 04:58:47;;;;;;;2.50;1.40;;;22.30;70.50;;;;;;5112270;28;20027;-72
2022/09/08 05:01:14;;;;;;;8.05;1.80;;;22.40;70.60;;;;;;5112051;28;20032;-72
2022/09/08 05:03:40;;;;;;;3.40;1.55;;;22.40;70.50;;;;;;5095027;28;20027;-72
2022/09/08 05:06:07;;;;;;;3.42;1.60;;;22.30;70.50;;;;;;5112504;28;20019;-73
2022/09/08 05:08:33;;;;;;;2.97;1.60;;;22.30;70.50;;;;;;5077944;28;20033;-72
2022/09/08 05:10:59;;;;;;;4.28;1.90;;;22.40;70.50;;;;;;5071349;28;20044;-72
2022/09/08 05:13:25;;;;;;;4.80;1.88;;;22.30;70.50;;;;;;5054671;28;20059;-72
2022/09/08 05:15:50;;;;;;;6.03;1.95;;;22.30;70.50;;;;;;5082598;28;20016;-72
2022/09/08 05:18:16;;;;;;;2.58;1.50;;;22.30;70.50;;;;;;5113187;28;20172;-72
2022/09/08 05:20:42;;;;;;;6.97;1.90;;;22.30;70.50;;;;;;5111809;28;20077;-72
2022/09/08 05:23:07;;;;;;;3.28;1.48;;;22.30;70.50;;;;;;5112939;28;20030;-72
2022/09/08 05:25:33;;;;;;;3.55;1.70;;;22.30;70.50;;;;;;5113058;28;20019;-72
2022/09/08 05:27:58;;;;;;;2.83;1.50;;;22.30;70.50;;;;;;5112830;28;20019;-72
2022/09/08 05:30:24;;;;;;;4.13;1.58;;;22.30;70.50;;;;;;5112694;28;20022;-72
2022/09/08 05:32:50;;;;;;;2.75;1.42;;;22.30;70.50;;;;;;5112819;28;20028;-72
2022/09/08 05:35:15;;;;;;;4.40;1.60;;;22.30;70.50;;;;;;5112962;28;20026;-72
2022/09/08 05:37:41;;;;;;;3.38;1.55;;;22.30;70.50;;;;;;5112780;28;20024;-72
2022/09/08 05:40:07;;;;;;;2.88;1.50;;;22.30;70.50;;;;;;5111480;28;20020;-72
2022/09/08 05:42:33;;;;;;;2.05;1.35;;;22.30;71.60;;;;;;5111622;28;20050;-72
2022/09/08 05:44:58;;;;;;;4.72;1.55;;;22.30;70.60;;;;;;5095351;28;20488;-72
2022/09/08 05:47:24;;;;;;;5.55;1.65;;;22.30;70.60;;;;;;5092610;28;20028;-72
2022/09/08 05:49:50;;;;;;;3.28;1.48;;;22.30;70.70;;;;;;5091360;28;20016;-72
2022/09/08 05:52:15;;;;;;;4.57;1.60;;;22.30;70.70;;;;;;5091740;28;20460;-72
2022/09/08 05:54:41;;;;;;;5.43;1.95;;;22.30;70.70;;;;;;5092860;28;20067;-72
2022/09/08 05:57:07;;;;;;;4.78;1.88;;;22.30;70.70;;;;;;5092687;28;20027;-72
2022/09/08 05:59:32;;;;;;;2.10;1.80;;;22.30;71.70;;;;;;5092738;28;20138;-72
2022/09/08 06:01:59;;;;;;;5.22;1.58;;;22.30;70.70;;;;;;5092710;28;20065;-72
2022/09/08 06:04:24;;;;;;;5.22;1.30;;;22.30;70.70;;;;;;5092782;28;20020;-72
2022/09/08 06:06:50;;;;;;;3.30;1.30;;;22.30;70.70;;;;;;5094787;28;20517;-72
2022/09/08 06:09:16;;;;;;;3.13;1.38;;;22.30;70.70;;;;;;5096936;28;20032;-72
2022/09/08 06:11:42;;;;;;;2.90;1.52;;;22.30;70.70;;;;;;5096900;28;20024;-72
2022/09/08 06:14:08;;;;;;;3.33;1.40;;;22.30;70.70;;;;;;5096520;28;20020;-71
2022/09/08 06:16:34;;;;;;;8.07;1.48;;;22.30;70.70;;;;;;5106545;28;20023;-71
2022/09/08 06:19:00;;;;;;;5.35;1.45;;;22.30;69.60;;;;;;5116914;28;20490;-71
2022/09/08 06:21:27;;;;;;;3.78;1.40;;;22.30;69.90;;;;;;5103646;28;20058;-71
2022/09/08 06:23:58;;;;;;;4.60;1.40;;;22.30;69.60;;;;;;5094471;28;20020;-70
2022/09/08 06:26:42;;;;;;;5.63;1.50;;;22.30;69.60;;;;;;5096256;28;20441;-70
2022/09/08 06:29:32;;;;;;;6.72;2.10;;;22.30;69.70;;;;;;5095674;28;20020;-70
2022/09/08 06:32:02;;;;;;;4.65;1.52;;;22.20;69.70;;;;;;5095776;28;20035;-70
2022/09/08 06:34:42;;;;;;;4.85;1.70;;;22.20;69.30;;;;;;5094571;28;20166;-71
2022/09/08 06:37:11;;;;;;;3.40;1.30;;;22.20;69.40;;;;;;5078173;28;20028;-70
2022/09/08 06:39:43;;;;;;;3.53;1.23;;;22.20;69.30;;;;;;5094597;28;20024;-70
2022/09/08 06:42:16;;;;;;;3.15;1.20;;;22.20;69.40;;;;;;5093865;28;20031;-71
2022/09/08 06:44:42;;;;;;;;;;;22.20;69.50;;;;;;5094809;28;20039;-71
2022/09/08 06:47:13;;;;;;;8.55;2.17;;;22.20;69.50;;;;;;5093943;28;19908;-71
2022/09/08 06:49:38;;;;;;;4.50;1.48;;;22.20;69.50;;;;;;5076530;28;20032;-71
2022/09/08 06:52:17;;;;;;;7.72;2.00;;;22.20;69.50;;;;;;5095242;28;20020;-70
2022/09/08 06:54:55;;;;;;;11.88;2.78;;;22.20;69.50;;;;;;5077744;28;20031;-71
2022/09/08 06:57:40;;;;;;;10.50;2.85;;;22.20;69.70;;;;;;5094043;28;20017;-70
2022/09/08 07:00:21;;;;;;;13.45;3.40;;;22.20;69.80;;;;;;5095490;28;20027;-70
2022/09/08 07:02:58;;;;;;;19.75;3.90;;;22.20;69.90;;;;;;5079027;28;20031;-71
2022/09/08 07:05:45;;;;;;;14.00;3.92;;;22.20;70.00;;;;;;5095205;28;20395;-70
2022/09/08 07:08:41;;;;;;;13.82;3.75;;;22.20;69.90;;;;;;5088504;28;20021;-72
2022/09/08 07:11:19;;;;;;;9.15;2.60;;;22.20;69.90;;;;;;5074683;28;20082;-70
2022/09/08 07:13:53;;;;;;;10.60;3.35;;;22.20;69.90;;;;;;5074782;28;20078;-71
2022/09/08 07:17:04;;;;;;;15.75;3.47;;;22.10;69.90;;;;;;5091919;28;20026;-70
2022/09/08 07:19:35;;;;;;;12.52;3.40;;;22.20;70.00;;;;;;5032431;28;20122;-71
2022/09/08 07:22:32;;;;;;;8.70;2.97;;;22.10;69.90;;;;;;5016352;28;20048;-71
2022/09/08 07:25:14;;;;;;;10.85;2.97;;;22.10;69.90;;;;;;4973320;28;20043;-71
2022/09/08 07:27:40;;;;;;;9.57;3.38;;;22.10;69.90;;;;;;4942722;28;20070;-70
2022/09/08 07:30:05;;;;;;;17.52;4.28;;;22.10;69.90;;;;;;4957612;28;20043;-72
2022/09/08 07:32:34;;;;;;;12.10;3.70;;;22.10;69.90;;;;;;4957282;28;20122;-70
2022/09/08 07:35:12;;;;;;;11.10;2.63;;;22.10;71.00;;;;;;4941784;28;20031;-70
2022/09/08 07:37:48;;;;;;;14.95;4.07;;;22.10;69.90;;;;;;4941787;28;20129;-70
2022/09/08 07:40:18;;;;;;;12.48;4.03;;;22.10;69.90;;;;;;4941266;28;20550;-70
2022/09/08 07:42:48;;;;;;;9.05;3.95;;;22.10;70.00;;;;;;4973527;28;20035;-71
2022/09/08 07:45:14;;;;;;;13.80;4.05;;;22.10;70.00;;;;;;4941430;28;20030;-70
2022/09/08 07:47:45;;;;;;;13.57;3.53;;;22.10;69.90;;;;;;4957156;28;20041;-70
2022/09/08 07:53:55;;;;;;;15.20;3.72;;;22.10;69.90;;;;;;4946992;28;20049;-70
2022/09/08 07:56:41;;;;;;;14.98;3.95;;;22.10;69.90;;;;;;5024340;28;20041;-71
2022/09/08 07:59:15;;;;;;;7.90;3.50;;;22.10;69.90;;;;;;5055605;28;20142;-70
2022/09/08 08:02:05;;;;;;;11.05;3.53;;;22.10;69.90;;;;;;5083149;28;20180;-71
2022/09/08 08:04:58;;;;;;;11.50;3.65;;;22.10;69.90;;;;;;5114256;28;20031;-70
2022/09/08 08:07:30;;;;;;;18.02;4.00;;;22.00;69.80;;;;;;5113537;28;20015;-72
2022/09/08 08:10:04;;;;;;;9.95;3.83;;;22.00;69.90;;;;;;5056337;28;20066;-71
2022/09/08 08:12:48;;;;;;;14.23;3.88;;;22.00;69.80;;;;;;5056159;28;20106;-70
2022/09/08 08:15:39;;;;;;;12.02;3.65;;;22.00;69.90;;;;;;5073468;28;20021;-72
2022/09/08 08:18:24;;;;;;;11.40;4.15;;;22.00;69.80;;;;;;5072395;28;20024;-70
2022/09/08 08:20:59;;;;;;;16.15;4.32;;;22.00;69.80;;;;;;5057113;28;20030;-70
2022/09/08 08:23:43;;;;;;;11.10;3.67;;;22.10;69.90;;;;;;5073188;28;20029;-70
2022/09/08 08:26:14;;;;;;;16.40;4.75;;;22.00;69.80;;;;;;5073659;28;20039;-72
2022/09/08 08:28:41;;;;;;;10.30;3.28;;;22.00;69.90;;;;;;5072786;28;20021;-71
2022/09/08 08:31:16;;;;;;;13.20;3.75;;;22.00;69.80;;;;;;5073090;28;20388;-70
2022/09/08 08:33:47;;;;;;;12.02;3.70;;;22.00;69.80;;;;;;5073255;28;20029;-70
2022/09/08 08:36:15;;;;;;;13.68;4.15;;;22.00;69.80;;;;;;5055934;28;20024;-70
2022/09/08 08:38:42;;;;;;;8.60;3.00;;;22.00;69.80;;;;;;5073073;28;20082;-71
2022/09/08 08:41:26;;;;;;;9.68;3.63;;;22.00;69.80;;;;;;5073197;28;20029;-71
2022/09/08 08:44:04;;;;;;;12.18;3.95;;;22.00;69.80;;;;;;5071745;28;20039;-71
2022/09/08 08:47:20;;;;;;;9.85;3.05;;;22.00;69.80;;;;;;5055874;28;20039;-72
2022/09/08 08:50:04;;;;;;;10.48;3.38;;;22.00;69.80;;;;;;5010979;28;20505;-70
2022/09/08 08:52:38;;;;;;;13.23;3.88;;;22.00;69.80;;;;;;5011009;28;20549;-70
2022/09/08 08:55:31;;;;;;;13.38;3.92;;;22.00;69.90;;;;;;5011111;28;20080;-70
2022/09/08 08:58:24;;;;;;;8.57;3.45;;;22.00;69.80;;;;;;5011030;28;20034;-71
2022/09/08 09:00:59;;;;;;;;;;;21.90;69.70;;;;;;4997558;28;20042;-70
2022/09/08 09:03:45;;;;;;;9.57;3.58;;;21.90;69.80;;;;;;4994679;28;20460;-70
2022/09/08 09:06:32;;;;;;;9.88;3.10;;;22.00;69.90;;;;;;5010946;28;20041;-71
2022/09/08 09:09:12;;;;;;;9.85;3.22;;;22.00;69.90;;;;;;5010680;28;20034;-70
2022/09/08 09:11:40;;;;;;;9.15;3.35;;;22.00;69.90;;;;;;4994593;28;20481;-70
2022/09/08 09:14:11;;;;;;;6.15;3.05;;;22.00;69.80;;;;;;5010594;28;20549;-70
2022/09/08 09:16:58;;;;;;;11.15;3.63;;;22.00;69.80;;;;;;5033489;28;20040;-70
2022/09/08 09:19:35;;;;;;;13.40;3.28;;;22.00;69.80;;;;;;5035183;28;20343;-72
2022/09/08 09:22:14;;;;;;;11.43;3.50;;;22.00;69.80;;;;;;5033603;28;20025;-72
2022/09/08 09:25:12;;;;;;;10.48;3.58;;;22.00;69.80;;;;;;5035066;28;20052;-70
2022/09/08 09:27:49;;;;;;;8.85;3.15;;;22.00;69.70;;;;;;5112984;28;20034;-70
2022/09/08 09:30:19;;;;;;;8.70;3.35;;;21.90;69.70;;;;;;5096280;28;20084;-70
2022/09/08 09:33:09;;;;;;;9.70;3.67;;;21.90;69.70;;;;;;5113074;28;20487;-70
2022/09/08 09:35:57;;;;;;;12.38;3.22;;;21.90;69.60;;;;;;5112708;28;20027;-70
2022/09/08 09:38:25;;;;;;;9.80;3.20;;;22.00;69.70;;;;;;5095990;28;20034;-71
2022/09/08 09:41:01;;;;;;;12.10;3.22;;;21.90;69.70;;;;;;5112577;28;20034;-70
2022/09/08 09:43:41;;;;;;;10.57;3.20;;;21.90;69.70;;;;;;5112702;28;20084;-70
2022/09/08 09:46:25;;;;;;;10.88;3.22;;;21.90;69.60;;;;;;5112683;28;20088;-70
2022/09/08 09:48:55;;;;;;;10.60;3.17;;;21.90;69.60;;;;;;5112562;28;20046;-70
2022/09/08 09:51:40;;;;;;;9.02;3.08;;;21.90;69.60;;;;;;5111232;28;20076;-71
2022/09/08 09:54:30;;;;;;;7.45;2.70;;;21.90;69.60;;;;;;5112502;28;20103;-71
2022/09/08 09:57:34;;;;;;;7.93;2.65;;;21.90;69.60;;;;;;5112670;28;20525;-71
2022/09/08 10:00:04;;;;;;;8.85;2.83;;;21.90;69.60;;;;;;5029936;28;20041;-71
2022/09/08 10:02:51;;;;;;;9.70;3.20;;;21.90;69.60;;;;;;5029638;28;20132;-70
2022/09/08 10:05:35;;;;;;;6.57;2.42;;;21.90;69.60;;;;;;5029654;28;20040;-70
2022/09/08 10:08:23;;;;;;;8.95;3.15;;;21.90;69.50;;;;;;5022199;28;20113;-70
2022/09/08 10:10:57;;;;;;;8.63;2.80;;;21.90;69.40;;;;;;4990647;28;20038;-71
2022/09/08 10:13:53;;;;;;;8.75;2.92;;;21.90;69.60;;;;;;4990636;28;20045;-71
2022/09/08 10:16:51;;;;;;;7.30;3.15;;;21.90;69.50;;;;;;5008066;28;20038;-70
2022/09/08 10:19:41;;;;;;;8.88;2.80;;;21.90;69.50;;;;;;5015747;28;20033;-70
2022/09/08 10:22:24;;;;;;;8.95;2.95;;;21.90;69.50;;;;;;5029737;28;20029;-70
2022/09/08 10:25:11;;;;;;;8.20;3.15;;;21.90;69.50;;;;;;5029904;28;20084;-70
2022/09/08 10:28:01;;;;;;;7.22;2.42;;;21.90;69.50;;;;;;5029826;28;20055;-70
2022/09/08 10:30:44;;;;;;;7.47;2.67;;;21.80;69.50;;;;;;5029618;28;20034;-70
2022/09/08 10:33:28;;;;;;;;;;;21.90;69.50;;;;;;5015433;28;20025;-70
2022/09/08 10:36:14;;;;;;;5.38;2.15;;;21.90;69.50;;;;;;5029609;28;19905;-70
2022/09/08 10:38:54;;;;;;;6.95;2.50;;;21.90;69.50;;;;;;5112003;28;20040;-71
2022/09/08 10:41:47;;;;;;;7.93;2.45;;;21.90;69.50;;;;;;5110950;28;20031;-70
2022/09/08 10:44:15;;;;;;;7.63;2.50;;;21.80;69.40;;;;;;5111145;28;20367;-70
2022/09/08 10:46:55;;;;;;;9.50;3.17;;;21.90;69.50;;;;;;5112224;28;20042;-70
2022/09/08 10:49:57;;;;;;;9.10;2.80;;;21.90;69.50;;;;;;5110527;28;20046;-70
2022/09/08 10:52:41;;;;;;;7.45;2.20;;;21.90;69.50;;;;;;5111685;28;20391;-71
2022/09/08 10:55:31;;;;;;;6.45;2.75;;;21.80;69.40;;;;;;5116003;28;20032;-72
2022/09/08 10:58:15;;;;;;;6.97;2.33;;;21.90;69.50;;;;;;5114779;28;20102;-72
2022/09/08 11:01:03;;;;;;;7.28;2.63;;;21.90;69.40;;;;;;5115681;28;20023;-70
2022/09/08 11:04:00;;;;;;;11.57;2.75;;;21.90;69.50;;;;;;5114397;28;20401;-70
2022/09/08 11:06:56;;;;;;;8.90;2.65;;;21.90;69.40;;;;;;5098426;28;20440;-71
2022/09/08 11:09:34;;;;;;;7.18;2.70;;;21.80;69.40;;;;;;5069849;28;20480;-71
2022/09/08 11:12:33;;;;;;;8.27;2.20;;;21.90;69.50;;;;;;5074016;28;20124;-70
2022/09/08 11:15:47;;;;;;;6.40;2.25;;;21.90;69.50;;;;;;5074820;28;20017;-70
2022/09/08 11:18:27;;;;;;;8.40;2.58;;;21.80;69.30;;;;;;5062140;28;20037;-70
2022/09/08 11:20:54;;;;;;;5.10;2.10;;;21.80;69.40;;;;;;5073592;28;20016;-70
2022/09/08 11:23:23;;;;;;;4.53;2.22;;;21.80;69.40;;;;;;5057053;28;20024;-71
2022/09/08 11:26:23;;;;;;;9.20;2.42;;;21.80;69.40;;;;;;5073479;28;20024;-70
2022/09/08 11:28:53;;;;;;;7.57;2.30;;;21.80;69.30;;;;;;5074814;28;20020;-70
2022/09/08 11:31:57;;;;;;;7.43;2.45;;;21.80;69.40;;;;;;5073364;28;20066;-70
2022/09/08 11:34:31;;;;;;;6.53;2.17;;;21.80;69.30;;;;;;5074221;28;20029;-71
2022/09/08 11:37:14;;;;;;;6.95;2.20;;;21.80;69.40;;;;;;5073406;28;20060;-70
2022/09/08 11:40:12;;;;;;;8.18;2.55;;;21.80;69.30;;;;;;5074315;28;20491;-71
2022/09/08 11:42:53;;;;;;;7.75;2.38;;;21.80;69.30;;;;;;5073253;28;20021;-71
2022/09/08 11:45:23;;;;;;;4.60;2.03;;;21.80;69.40;;;;;;5074075;28;20060;-70
2022/09/08 11:48:01;;;;;;;5.55;2.30;;;21.90;69.40;;;;;;5072626;28;20045;-70
2022/09/08 11:50:45;;;;;;;5.57;2.25;;;21.80;69.40;;;;;;5074291;28;20013;-70
2022/09/08 11:53:13;;;;;;;7.80;2.70;;;21.80;69.40;;;;;;5074115;28;20040;-70
2022/09/08 11:55:53;;;;;;;6.00;2.00;;;21.80;69.40;;;;;;5073929;28;20052;-70
2022/09/08 11:58:23;;;;;;;5.90;2.05;;;21.80;69.40;;;;;;5056999;28;20435;-70
2022/09/08 12:01:01;;;;;;;8.55;3.05;;;21.80;69.30;;;;;;5072624;28;20028;-71
2022/09/08 12:03:48;;;;;;;5.13;1.85;;;21.80;69.30;;;;;;5073679;28;20032;-72
2022/09/08 12:06:43;;;;;;;6.15;2.28;;;21.80;69.30;;;;;;5073771;28;20031;-70
2022/09/08 12:10:00;;;;;;;6.70;2.00;;;21.80;69.30;;;;;;5072560;28;20085;-71
2022/09/08 12:12:53;;;;;;;4.63;2.13;;;21.80;69.30;;;;;;5059501;28;20033;-70
2022/09/08 12:15:34;;;;;;;6.05;2.10;;;21.80;69.30;;;;;;5073659;28;20028;-70
2022/09/08 12:18:12;;;;;;;4.97;1.92;;;21.80;69.30;;;;;;5114185;28;20031;-71
2022/09/08 12:21:15;;;;;;;5.65;2.05;;;21.80;69.30;;;;;;5114222;28;20023;-70
2022/09/08 12:23:48;;;;;;;5.20;1.77;;;21.80;69.40;;;;;;5050979;28;20033;-71
2022/09/08 12:26:25;;;;;;;;;;;21.80;69.40;;;;;;5051728;28;20493;-71
2022/09/08 12:29:19;;;;;;;5.20;2.17;;;21.80;69.20;;;;;;5051394;28;19916;-70
2022/09/08 12:32:08;;;;;;;6.72;2.30;;;21.80;69.30;;;;;;5050976;28;20029;-70
2022/09/08 12:34:36;;;;;;;4.22;1.90;;;21.80;69.30;;;;;;5050960;28;20464;-72
2022/09/08 12:37:19;;;;;;;4.93;1.80;;;21.80;69.30;;;;;;5051260;28;20025;-70
2022/09/08 12:40:06;;;;;;;6.90;1.77;;;21.90;69.30;;;;;;5051037;28;20520;-70
2022/09/08 12:42:31;;;;;;;4.25;1.88;;;21.80;69.20;;;;;;5050953;28;20032;-70
2022/09/08 12:45:15;;;;;;;3.13;1.80;;;21.80;69.20;;;;;;5050911;28;20092;-70
2022/09/08 12:47:52;;;;;;;6.05;2.10;;;21.90;69.30;;;;;;5050654;28;20029;-70
2022/09/08 12:50:29;;;;;;;3.55;1.65;;;21.80;69.20;;;;;;5051002;28;20171;-71
2022/09/08 12:53:11;;;;;;;6.65;1.92;;;21.80;69.30;;;;;;5018396;28;20048;-70
2022/09/08 12:55:40;;;;;;;4.50;1.80;;;21.80;69.20;;;;;;5034631;28;20112;-70
2022/09/08 12:58:06;;;;;;;4.13;1.80;;;21.80;69.20;;;;;;5086487;28;20031;-72
2022/09/08 13:00:41;;;;;;;3.90;1.70;;;21.80;69.20;;;;;;5112048;28;20028;-71
2022/09/08 13:03:17;;;;;;;6.88;2.15;;;21.80;69.20;;;;;;5112360;28;20023;-70
2022/09/08 13:06:24;;;;;;;6.00;2.20;;;21.80;69.20;;;;;;5112071;28;20015;-71
2022/09/08 13:09:05;;;;;;;3.30;2.00;;;21.90;69.20;;;;;;5009652;28;20072;-70
2022/09/08 13:11:39;;;;;;;4.57;1.63;;;21.90;69.30;;;;;;4976134;28;20458;-71
2022/09/08 13:14:07;;;;;;;4.22;1.73;;;21.90;69.30;;;;;;4991307;28;20067;-70
2022/09/08 13:16:52;;;;;;;6.97;1.95;;;21.90;70.30;;;;;;4995440;28;20040;-70
2022/09/08 13:19:28;;;;;;;7.20;1.83;;;21.90;69.30;;;;;;5014270;28;20021;-70
2022/09/08 13:22:13;;;;;;;2.30;1.20;;;21.90;69.30;;;;;;5013942;28;20029;-71
2022/09/08 13:24:48;;;;;;;5.00;1.67;;;21.90;69.30;;;;;;5015030;28;20109;-70
2022/09/08 13:27:38;;;;;;;3.55;1.73;;;21.90;69.30;;;;;;5030358;28;20036;-70
2022/09/08 13:30:22;;;;;;;4.28;1.67;;;21.90;69.30;;;;;;5030663;28;20029;-70